Terminal Aerodrome Forecast
Issued by NWS

Home | Current Version | Previous Version | Text Only | Print | Product List | Glossary On
Versions: 1 2 3 4 5 6 7 8 9 10 11 12 13 14 15
249
FTUS43 KGRR 270533
TAFLAN
TAF
KLAN 270533Z 2706/2806 20003KT P6SM SCT150
     FM271000 18004KT 6SM HZ BKN045
     FM272000 19007KT P6SM VCTS BKN050CB
     FM280300 18006KT P6SM BKN180=

USA.gov is the U.S. government's official web portal to all federal, state and local government web resources and services.